Staten Island, NY

3:59 PM EDT on August 27, 2015 (GMT -0400)
KNYSTATE8 | | Change Station
CLOSE
Current Station
Personal Weather Station
Location: Staten Island (Travis), NY
Elevation: 52 ft
Nearby Weather Stations

Elev 52 ft 40.59 °N, 74.19 °W | Updated 3 minutes ago

Partly Cloudy
Partly Cloudy
80.4 °F
Feels Like 80 °F
N
1.0
Wind Variable Wind from NNW
Gusts 0.0 mph

Today
High -- | Low -- °F
--% Chance of Precip.
Yesterday
High -- | Low -- °F
Precip. -- in
6:18 AM 7:37 PM
Waxing Gibbous, 94% visible
Pressure 30.06 in
Visibility 10.0 miles
Clouds Scattered Clouds 5500 ft
Heat Index 80 °F
Dew Point 55 °F
Humidity 41%
Rainfall 0.00 in
Snow Depth Not available.
UV 4 out of 12
Pollen 10.20 out of 12
Air Quality Not available.
Flu Activity Not available.
METAR KLDJ 271955Z AUTO 33009G17KT 10SM SCT055 27/10 A3006 RMK AO2 T02680104
Pressure 30.06 in
Visibility 10.0 miles
Clouds Scattered Clouds 5500 ft
Heat Index 80 °F
Dew Point 55 °F
Humidity 41%
Rainfall 0.00 in
Snow Depth Not available.
UV 4 out of 12
Pollen 10.20 out of 12
Air Quality Not available.
Flu Activity Not available.
METAR KLDJ 271955Z AUTO 33009G17KT 10SM SCT055 27/10 A3006 RMK AO2 T02680104

10-Day Weather Forecast

×

Almanac

Astronomy

Aug. 27, 2015 Rise Set
Actual Time
Civil Twilight
Nautical Twilight
Astronomical Twilight
Moon
Length of Visible Light
Length of Day
Tomorrow will be .
, % of the Moon is Illuminated

Today's Extremes

State Highs State Lows

Community

WunderPhotos

Upload Photos

1,850,200 photos uploaded!

WunderBlogs® & News

Nearby

Air Quality

  Air Quality AQ Index Pollutant
Not available.

Snow Depth

Station Depth Elevation

Earthquake Activity

City Distance Mag. Time & Date
Minimum magnitude displayed is 2.5.

Coastal Water Temperatures

Place Temperature

Stations

Nearby Weather Stations

Station Location Temp. Windchill Dew Point Humidity Wind Precip. Elev Updated Type